Sallum Plateau, Egypt
Current Conditions -  °F | °C
As of 1:00 PM on Monday 20 Oct 2014 (Local Time) from HEMM Reporting Station
Scattered Clouds Scattered Clouds  
Wind Chill: 25°   Ceiling: Unl
Heat Index: 26°   Visibility: 6mi
Dew Point: 13°   Wind: 14mph
Humidity: 47%   Direction: 350°N
Pressure: 30.03"   Gusts: NA
Location:  31.57°N, 25.13°E
Report Text: HEMM 201100Z 35012KT 9999 SCT020 25/13 Q1017 NOSIG
Loading
Personal Weather Stations






























Interactive Weather Map
Tropical Storm Tracking
New forecast layout! Learn more

10-Day Weather Forecast

Advertisements
Track Severe Weather on mobile